createdAt,value
2019-02-07T00:02:13.571Z,98529.97
2019-02-07T00:04:42.495Z,98531.88
2019-02-07T00:07:11.528Z,98530.38
2019-02-07T00:09:40.159Z,98532.00
2019-02-07T00:12:08.817Z,98515.21
2019-02-07T00:14:39.835Z,98512.50
2019-02-07T00:17:08.224Z,98507.99
2019-02-07T00:19:36.875Z,98515.63
2019-02-07T00:22:06.296Z,98506.22
2019-02-07T00:24:42.467Z,98494.43
2019-02-07T00:27:05.363Z,98492.50
2019-02-07T00:29:34.373Z,98499.05
2019-02-07T00:32:03.030Z,98497.43
2019-02-07T00:34:31.672Z,98498.69
2019-02-07T00:37:00.592Z,98490.89
2019-02-07T00:39:29.254Z,98498.00
2019-02-07T00:41:58.204Z,98494.61
2019-02-07T00:44:27.388Z,98500.77
2019-02-07T00:46:56.028Z,98491.93
2019-02-07T00:49:24.677Z,98490.75
2019-02-07T00:51:53.339Z,98490.55
2019-02-07T00:54:21.983Z,98479.67
2019-02-07T00:56:50.643Z,98477.30
2019-02-07T00:59:19.295Z,98479.16
2019-02-07T01:01:48.391Z,98475.50
2019-02-07T01:04:17.103Z,98474.59
2019-02-07T01:06:46.843Z,98470.13
2019-02-07T01:09:15.598Z,98475.34
2019-02-07T01:11:44.240Z,98478.89
2019-02-07T01:14:12.914Z,98472.01
2019-02-07T01:16:41.556Z,98474.67
2019-02-07T01:19:10.183Z,98468.20
2019-02-07T01:21:39.225Z,98459.34
2019-02-07T01:24:08.139Z,98462.75
2019-02-07T01:26:36.784Z,98458.61
2019-02-07T01:29:05.499Z,98459.41
2019-02-07T01:31:34.174Z,98460.27
2019-02-07T01:34:02.992Z,98451.67
2019-02-07T01:36:31.653Z,98447.76
2019-02-07T01:39:00.722Z,98452.85
2019-02-07T01:41:31.003Z,98448.86
2019-02-07T01:43:59.663Z,98439.66
2019-02-07T01:46:28.320Z,98438.69
2019-02-07T01:48:56.984Z,98436.55
2019-02-07T01:51:25.902Z,98434.41
2019-02-07T01:53:54.561Z,98426.91
2019-02-07T01:56:23.215Z,98428.70
2019-02-07T01:58:51.857Z,98418.02
2019-02-07T02:01:20.507Z,98415.18
2019-02-07T02:03:49.168Z,98424.47
2019-02-07T02:06:17.802Z,98416.69
2019-02-07T02:08:46.447Z,98414.20
2019-02-07T02:11:15.388Z,98415.94
2019-02-07T02:13:44.031Z,98410.28
2019-02-07T02:16:12.671Z,98409.52
2019-02-07T02:18:41.331Z,98407.91
2019-02-07T02:21:09.976Z,98405.12
2019-02-07T02:23:38.626Z,98402.10
2019-02-07T02:26:07.909Z,98394.84
2019-02-07T02:28:36.727Z,98393.51
2019-02-07T02:31:05.386Z,98405.39
2019-02-07T02:33:34.038Z,98397.34
2019-02-07T02:36:03.342Z,98391.91
2019-02-07T02:38:32.391Z,98387.52
2019-02-07T02:41:01.203Z,98386.76
2019-02-07T02:43:29.856Z,98378.03
2019-02-07T02:45:58.904Z,98378.21
2019-02-07T02:48:27.637Z,98367.40
2019-02-07T02:50:56.292Z,98367.64
2019-02-07T02:53:24.966Z,98360.29
2019-02-07T02:55:55.497Z,98354.50
2019-02-07T02:58:24.315Z,98344.11
2019-02-07T03:01:24.538Z,98346.48
2019-02-07T03:04:11.061Z,98348.90
2019-02-07T03:06:52.100Z,98340.83
2019-02-07T03:09:38.695Z,98345.57
2019-02-07T03:12:39.211Z,98350.88
2019-02-07T03:15:29.037Z,98347.52
2019-02-07T03:18:22.311Z,98330.30
2019-02-07T03:21:08.756Z,98315.44
2019-02-07T03:24:05.710Z,98315.44
2019-02-07T03:26:53.503Z,98312.31
2019-02-07T03:29:44.330Z,98319.53
2019-02-07T03:32:29.957Z,98308.84
2019-02-07T03:35:15.240Z,98297.17
2019-02-07T03:38:06.559Z,98288.16
2019-02-07T03:41:06.558Z,98285.73
2019-02-07T03:43:51.295Z,98276.63
2019-02-07T03:46:37.896Z,98277.05
2019-02-07T03:49:13.900Z,98275.77
2019-02-07T03:51:59.298Z,98281.51
2019-02-07T03:55:02.086Z,98276.41
2019-02-07T03:57:40.902Z,98270.80
2019-02-07T04:00:30.263Z,98266.66
2019-02-07T04:03:06.372Z,98277.89
2019-02-07T04:05:56.877Z,98276.19
2019-02-07T04:08:54.501Z,98276.69
2019-02-07T04:11:41.150Z,98276.65
2019-02-07T04:14:37.984Z,98280.23
2019-02-07T04:17:24.316Z,98283.75
2019-02-07T04:20:10.443Z,98286.39
2019-02-07T04:23:00.726Z,98275.93
2019-02-07T04:25:52.431Z,98273.75
2019-02-07T04:28:42.891Z,98263.58
2019-02-07T04:31:30.920Z,98272.55
2019-02-07T04:34:17.255Z,98265.71
2019-02-07T04:37:01.847Z,98262.92
2019-02-07T04:39:40.871Z,98265.71
2019-02-07T04:42:34.631Z,98261.48
2019-02-07T04:45:21.980Z,98260.39
2019-02-07T04:47:59.062Z,98248.87
2019-02-07T04:50:51.274Z,98259.83
2019-02-07T04:53:42.030Z,98249.28
2019-02-07T04:56:48.188Z,98239.73
2019-02-07T04:59:24.034Z,98244.33
2019-02-07T05:02:16.036Z,98244.33
2019-02-07T05:05:00.919Z,98237.31
2019-02-07T05:07:57.459Z,98250.69
2019-02-07T05:10:44.008Z,98240.63
2019-02-07T05:13:32.090Z,98236.63
2019-02-07T05:16:19.271Z,98233.56
2019-02-07T05:19:05.400Z,98223.58
2019-02-07T05:21:52.086Z,98218.94
2019-02-07T05:24:36.316Z,98226.84
2019-02-07T05:27:36.547Z,98231.63
2019-02-07T05:30:25.499Z,98220.62
2019-02-07T05:33:19.383Z,98224.53
2019-02-07T05:36:10.083Z,98233.88
2019-02-07T05:39:04.186Z,98230.62
2019-02-07T05:41:52.247Z,98228.89
2019-02-07T05:44:34.160Z,98225.70
2019-02-07T05:47:21.151Z,98217.34
2019-02-07T05:50:07.815Z,98225.75
2019-02-07T05:52:58.429Z,98221.31
2019-02-07T05:55:44.777Z,98221.73
2019-02-07T05:58:31.354Z,98231.39
2019-02-07T06:01:17.068Z,98219.55
2019-02-07T06:04:19.830Z,98217.94
2019-02-07T06:07:06.781Z,98209.48
2019-02-07T06:09:53.614Z,98208.27
2019-02-07T06:12:34.871Z,98213.86
2019-02-07T06:15:25.718Z,98217.66
2019-02-07T06:18:19.302Z,98213.38
2019-02-07T06:21:09.829Z,98215.28
2019-02-07T06:24:00.372Z,98217.33
2019-02-07T06:26:42.530Z,98219.23
2019-02-07T06:29:20.641Z,98230.74
2019-02-07T06:32:07.255Z,98236.06
2019-02-07T06:35:10.704Z,98216.25
2019-02-07T06:37:57.779Z,98219.71
2019-02-07T06:40:44.265Z,98211.57
2019-02-07T06:43:29.835Z,98216.89
2019-02-07T06:46:06.110Z,98209.16
2019-02-07T06:49:04.068Z,98216.08
2019-02-07T06:51:48.974Z,98208.11
2019-02-07T06:54:44.647Z,98207.63
2019-02-07T06:57:31.342Z,98213.02
2019-02-07T07:00:14.691Z,98203.67
2019-02-07T07:03:08.271Z,98204.16
2019-02-07T07:05:54.600Z,98216.36
2019-02-07T07:08:33.896Z,98202.59
2019-02-07T07:11:10.356Z,98204.14
2019-02-07T07:13:51.348Z,98204.20
2019-02-07T07:16:35.982Z,98204.56
2019-02-07T07:19:22.550Z,98206.66
2019-02-07T07:22:06.532Z,98209.98
2019-02-07T07:24:53.360Z,98206.13
2019-02-07T07:27:36.579Z,98208.53
2019-02-07T07:30:24.804Z,98215.64
2019-02-07T07:33:24.930Z,98210.69
2019-02-07T07:36:11.559Z,98218.89
2019-02-07T07:38:58.663Z,98214.88
2019-02-07T07:41:45.471Z,98219.05
2019-02-07T07:44:31.894Z,98213.65
2019-02-07T07:47:35.706Z,98212.99
2019-02-07T07:50:15.761Z,98219.09
2019-02-07T07:53:09.815Z,98214.75
2019-02-07T07:56:06.871Z,98223.36
2019-02-07T07:58:44.490Z,98216.71
2019-02-07T08:01:30.847Z,98216.95
2019-02-07T08:04:18.003Z,98215.55
2019-02-07T08:07:14.114Z,98226.30
2019-02-07T08:10:01.862Z,98231.06
2019-02-07T08:12:48.766Z,98232.28
2019-02-07T08:15:42.334Z,98236.62
2019-02-07T08:18:28.748Z,98240.77
2019-02-07T08:21:19.422Z,98231.78
2019-02-07T08:24:10.372Z,98236.42
2019-02-07T08:26:57.092Z,98243.59
2019-02-07T08:29:43.464Z,98244.94
2019-02-07T08:32:30.176Z,98249.48
2019-02-07T08:35:30.620Z,98249.80
2019-02-07T08:38:25.592Z,98247.25
2019-02-07T08:41:11.887Z,98247.70
2019-02-07T08:44:02.463Z,98258.80
2019-02-07T08:46:48.831Z,98251.66
2019-02-07T08:49:35.281Z,98256.39
2019-02-07T08:52:32.429Z,98253.94
2019-02-07T08:55:35.339Z,98244.69
2019-02-07T08:58:29.008Z,98252.16
2019-02-07T09:01:15.984Z,98243.77
2019-02-07T09:04:22.049Z,98242.80
2019-02-07T09:07:12.756Z,98236.89
2019-02-07T09:10:12.442Z,98236.42
2019-02-07T09:13:03.015Z,98236.89
2019-02-07T09:15:39.348Z,98227.27
2019-02-07T09:18:31.164Z,98224.17
2019-02-07T09:21:21.916Z,98225.05
2019-02-07T09:24:09.922Z,98223.33
2019-02-07T09:26:46.384Z,98224.20
2019-02-07T09:29:35.423Z,98227.33
2019-02-07T09:32:41.326Z,98220.25
2019-02-07T09:35:34.918Z,98216.94
2019-02-07T09:38:20.253Z,98229.30
2019-02-07T09:41:05.949Z,98222.36
2019-02-07T09:43:52.308Z,98220.61
2019-02-07T09:46:38.691Z,98233.36
2019-02-07T09:49:39.187Z,98230.14
2019-02-07T09:52:21.041Z,98225.13
2019-02-07T09:55:02.859Z,98215.55
2019-02-07T09:57:38.629Z,98212.88
2019-02-07T10:00:42.849Z,98217.36
2019-02-07T10:03:18.075Z,98212.78
2019-02-07T10:06:05.890Z,98216.66
2019-02-07T10:08:59.727Z,98209.08
2019-02-07T10:11:47.711Z,98213.43
2019-02-07T10:14:41.281Z,98208.42
2019-02-07T10:17:19.499Z,98204.70
2019-02-07T10:19:56.490Z,98199.66
2019-02-07T10:22:36.006Z,98201.64
2019-02-07T10:25:22.092Z,98193.53
2019-02-07T10:28:03.194Z,98186.17
2019-02-07T10:30:48.366Z,98181.70
2019-02-07T10:33:45.053Z,98180.14
2019-02-07T10:36:32.081Z,98186.73
2019-02-07T10:39:28.898Z,98185.09
2019-02-07T10:42:32.008Z,98176.88
2019-02-07T10:45:10.569Z,98178.87
2019-02-07T10:47:57.364Z,98176.75
2019-02-07T10:50:41.645Z,98175.95
2019-02-07T10:53:28.159Z,98168.73
2019-02-07T10:56:24.949Z,98170.95
2019-02-07T10:59:13.855Z,98168.09
2019-02-07T11:02:04.603Z,98161.78
2019-02-07T11:04:51.389Z,98162.05
2019-02-07T11:07:39.103Z,98149.50
2019-02-07T11:10:27.798Z,98152.42
2019-02-07T11:13:25.270Z,98152.50
2019-02-07T11:16:11.919Z,98147.97
2019-02-07T11:19:21.435Z,98139.97
2019-02-07T11:22:04.936Z,98154.31
2019-02-07T11:24:51.462Z,98143.68
2019-02-07T11:27:38.416Z,98141.28
2019-02-07T11:30:17.432Z,98133.29
2019-02-07T11:33:05.233Z,98130.00
2019-02-07T11:36:03.851Z,98128.97
2019-02-07T11:38:54.516Z,98119.38
2019-02-07T11:41:35.424Z,98115.91
2019-02-07T11:44:16.423Z,98120.20
2019-02-07T11:47:10.100Z,98105.83
2019-02-07T11:49:56.300Z,98108.75
2019-02-07T11:52:43.160Z,98106.63
2019-02-07T11:55:30.991Z,98102.62
2019-02-07T11:58:07.852Z,98108.22
2019-02-07T12:00:56.131Z,98102.87
2019-02-07T12:03:38.231Z,98099.12
2019-02-07T12:06:29.065Z,98095.33
2019-02-07T12:09:15.928Z,98087.84
2019-02-07T12:12:03.671Z,98075.37
2019-02-07T12:15:03.335Z,98090.00
2019-02-07T12:17:53.955Z,98080.37
2019-02-07T12:20:50.738Z,98074.54
2019-02-07T12:23:41.327Z,98079.09
2019-02-07T12:26:44.470Z,98079.35
2019-02-07T12:29:25.414Z,98068.39
2019-02-07T12:32:05.244Z,98065.98
2019-02-07T12:34:57.202Z,98073.20
2019-02-07T12:37:49.040Z,98069.94
2019-02-07T12:40:50.152Z,98070.26
2019-02-07T12:43:32.780Z,98061.16
2019-02-07T12:46:32.694Z,98059.56
2019-02-07T12:49:38.832Z,98049.63
2019-02-07T12:52:29.230Z,98053.91
2019-02-07T12:55:13.906Z,98046.19
2019-02-07T12:58:01.642Z,98045.67
2019-02-07T13:01:01.752Z,98050.95
2019-02-07T13:03:49.286Z,98051.39
2019-02-07T13:06:36.255Z,98047.10
2019-02-07T13:09:33.483Z,98048.02
2019-02-07T13:12:10.743Z,98043.75
2019-02-07T13:14:58.469Z,98032.75
2019-02-07T13:17:49.007Z,98030.05
2019-02-07T13:20:35.779Z,98042.10
2019-02-07T13:23:22.602Z,98030.61
2019-02-07T13:26:09.690Z,98040.24
2019-02-07T13:28:57.504Z,98036.27
2019-02-07T13:31:33.601Z,98029.81
2019-02-07T13:34:23.116Z,98026.86
2019-02-07T13:37:06.684Z,98029.28
2019-02-07T13:39:54.447Z,98024.17
2019-02-07T13:42:41.138Z,98022.56
2019-02-07T13:45:22.945Z,98033.53
2019-02-07T13:48:11.100Z,98016.96
2019-02-07T13:50:58.868Z,98017.74
2019-02-07T13:53:55.930Z,98022.81
2019-02-07T13:56:56.206Z,98024.71
2019-02-07T14:00:02.399Z,98020.41
2019-02-07T14:02:42.306Z,98023.92
2019-02-07T14:05:33.643Z,98024.42
2019-02-07T14:08:38.205Z,98030.38
2019-02-07T14:11:23.453Z,98031.16
2019-02-07T14:14:05.339Z,98025.84
2019-02-07T14:16:43.249Z,98020.18
2019-02-07T14:19:46.263Z,98022.02
2019-02-07T14:22:27.933Z,98018.28
2019-02-07T14:25:09.199Z,98017.48
2019-02-07T14:27:51.895Z,98019.08
2019-02-07T14:30:30.111Z,98015.32
2019-02-07T14:33:15.401Z,98021.20
2019-02-07T14:36:01.799Z,98024.50
2019-02-07T14:38:41.861Z,98024.46
2019-02-07T14:41:28.646Z,98018.62
2019-02-07T14:44:23.471Z,98022.92
2019-02-07T14:46:52.749Z,98019.97
2019-02-07T14:49:21.390Z,98022.11
2019-02-07T14:51:51.122Z,98033.08
2019-02-07T14:54:19.838Z,98027.45
2019-02-07T14:56:48.854Z,98026.92
2019-02-07T14:59:17.520Z,98025.87
2019-02-07T15:01:46.536Z,98025.87
2019-02-07T15:04:15.175Z,98027.47
2019-02-07T15:06:43.899Z,98028.29
2019-02-07T15:09:14.430Z,98030.15
2019-02-07T15:11:43.063Z,98035.20
2019-02-07T15:14:11.819Z,98037.63
2019-02-07T15:16:40.611Z,98038.94
2019-02-07T15:19:09.599Z,98036.27
2019-02-07T15:21:38.523Z,98044.59
2019-02-07T15:24:08.398Z,98034.42
2019-02-07T15:26:37.319Z,98033.09
2019-02-07T15:29:06.038Z,98045.92
2019-02-07T15:31:34.689Z,98034.96
2019-02-07T15:34:03.420Z,98030.92
2019-02-07T15:36:32.258Z,98032.25
2019-02-07T15:39:00.907Z,98033.59
2019-02-07T15:41:31.592Z,98031.48
2019-02-07T15:44:01.214Z,98031.45
2019-02-07T15:46:29.930Z,98031.45
2019-02-07T15:48:58.593Z,98029.34
2019-02-07T15:51:27.306Z,98033.34
2019-02-07T15:53:55.953Z,98039.77
2019-02-07T15:56:24.790Z,98037.09
2019-02-07T15:59:01.325Z,98032.02
2019-02-07T16:01:40.228Z,98036.03
2019-02-07T16:04:21.314Z,98037.63
2019-02-07T16:06:50.322Z,98044.86
2019-02-07T16:09:19.154Z,98038.14
2019-02-07T16:11:47.843Z,98034.66
2019-02-07T16:14:16.491Z,98037.10
2019-02-07T16:16:45.139Z,98038.67
2019-02-07T16:19:13.779Z,98043.22
2019-02-07T16:21:42.591Z,98050.70
2019-02-07T16:24:11.312Z,98044.53
2019-02-07T16:26:40.033Z,98054.96
2019-02-07T16:29:08.683Z,98046.69
2019-02-07T16:31:37.351Z,98050.96
2019-02-07T16:34:05.985Z,98048.28
2019-02-07T16:36:34.910Z,98044.81
2019-02-07T16:39:04.814Z,98042.17
2019-02-07T16:41:33.927Z,98048.59
2019-02-07T16:44:02.588Z,98043.25
2019-02-07T16:46:31.294Z,98045.38
2019-02-07T16:48:59.948Z,98046.72
2019-02-07T16:51:28.870Z,98055.55
2019-02-07T16:53:57.530Z,98057.16
2019-02-07T16:56:26.222Z,98061.44
2019-02-07T16:58:54.887Z,98058.49
2019-02-07T17:01:23.526Z,98062.77
2019-02-07T17:03:52.196Z,98067.59
2019-02-07T17:06:20.830Z,98074.80
2019-02-07T17:08:50.555Z,98070.52
2019-02-07T17:11:19.604Z,98075.34
2019-02-07T17:13:48.234Z,98082.28
2019-02-07T17:16:16.882Z,98075.33
2019-02-07T17:18:45.744Z,98082.56
2019-02-07T17:21:14.456Z,98080.42
2019-02-07T17:23:43.109Z,98086.30
2019-02-07T17:26:11.755Z,98082.30
2019-02-07T17:28:40.468Z,98072.94
2019-02-07T17:31:09.196Z,98072.66
2019-02-07T17:33:37.843Z,98078.81
2019-02-07T17:36:06.487Z,98077.75
2019-02-07T17:38:35.515Z,98072.94
2019-02-07T17:41:04.356Z,98076.68
2019-02-07T17:43:33.007Z,98084.70
2019-02-07T17:46:01.644Z,98092.45
2019-02-07T17:48:30.466Z,98096.47
2019-02-07T17:50:59.114Z,98097.01
2019-02-07T17:53:27.770Z,98101.82
2019-02-07T17:55:56.422Z,98088.18
2019-02-07T17:58:25.083Z,98091.12
2019-02-07T18:01:06.528Z,98097.04
2019-02-07T18:03:35.256Z,98096.23
2019-02-07T18:06:04.297Z,98103.45
2019-02-07T18:08:33.324Z,98102.92
2019-02-07T18:11:02.038Z,98110.95
2019-02-07T18:13:30.673Z,98107.73
2019-02-07T18:15:59.607Z,98102.11
2019-02-07T18:18:28.578Z,98107.20
2019-02-07T18:20:57.413Z,98102.38
2019-02-07T18:23:26.524Z,98107.47
2019-02-07T18:25:55.163Z,98104.52
2019-02-07T18:28:23.880Z,98097.56
2019-02-07T18:30:52.532Z,98101.58
2019-02-07T18:33:21.453Z,98102.11
2019-02-07T18:35:50.091Z,98103.45
2019-02-07T18:38:18.764Z,98111.75
2019-02-07T18:40:47.671Z,98103.72
2019-02-07T18:43:16.327Z,98100.77
2019-02-07T18:45:44.967Z,98113.61
2019-02-07T18:48:13.684Z,98106.13
2019-02-07T18:50:42.382Z,98114.70
2019-02-07T18:53:11.039Z,98109.36
2019-02-07T18:55:40.159Z,98113.10
2019-02-07T18:58:08.858Z,98112.83
2019-02-07T19:00:37.679Z,98114.43
2019-02-07T19:03:06.890Z,98106.67
2019-02-07T19:05:36.570Z,98116.31
2019-02-07T19:08:05.930Z,98111.22
2019-02-07T19:10:34.852Z,98115.23
2019-02-07T19:13:05.031Z,98112.56
2019-02-07T19:15:37.798Z,98110.69
2019-02-07T19:18:06.595Z,98107.73
2019-02-07T19:20:35.538Z,98115.48
2019-02-07T19:23:04.592Z,98119.23
2019-02-07T19:25:33.477Z,98115.75
2019-02-07T19:28:02.204Z,98118.16
2019-02-07T19:30:31.147Z,98121.10
2019-02-07T19:33:00.152Z,98114.41
2019-02-07T19:35:28.855Z,98118.70
2019-02-07T19:37:57.563Z,98126.73
2019-02-07T19:40:26.282Z,98119.51
2019-02-07T19:42:55.425Z,98114.14
2019-02-07T19:45:24.186Z,98113.36
2019-02-07T19:47:53.420Z,98121.64
2019-02-07T19:50:22.910Z,98117.89
2019-02-07T19:52:51.851Z,98112.78
2019-02-07T19:55:21.711Z,98118.15
2019-02-07T19:57:50.523Z,98117.89
2019-02-07T20:00:21.751Z,98124.05
2019-02-07T20:02:50.565Z,98115.48
2019-02-07T20:05:19.370Z,98116.28
2019-02-07T20:07:48.212Z,98120.30
2019-02-07T20:10:18.038Z,98117.89
2019-02-07T20:12:47.221Z,98111.73
2019-02-07T20:15:17.961Z,98118.95
2019-02-07T20:17:46.842Z,98128.06
2019-02-07T20:20:15.569Z,98136.09
2019-02-07T20:22:44.340Z,98142.52
2019-02-07T20:25:13.213Z,98139.58
2019-02-07T20:27:42.010Z,98147.61
2019-02-07T20:30:16.025Z,98148.42
2019-02-07T20:32:44.826Z,98148.42
2019-02-07T20:35:15.654Z,98154.56
2019-02-07T20:37:44.950Z,98156.98
2019-02-07T20:40:14.814Z,98151.36
2019-02-07T20:42:43.575Z,98152.44
2019-02-07T20:45:12.413Z,98152.70
2019-02-07T20:47:42.487Z,98162.06
2019-02-07T20:50:12.555Z,98154.86
2019-02-07T20:52:41.599Z,98169.30
2019-02-07T20:55:10.565Z,98172.77
2019-02-07T20:57:40.939Z,98171.70
2019-02-07T21:00:14.395Z,98167.68
2019-02-07T21:02:43.596Z,98175.98
2019-02-07T21:05:12.331Z,98169.31
2019-02-07T21:07:41.330Z,98170.11
2019-02-07T21:10:10.962Z,98175.18
2019-02-07T21:12:39.778Z,98178.42
2019-02-07T21:15:09.847Z,98179.73
2019-02-07T21:17:38.508Z,98188.84
2019-02-07T21:20:08.250Z,98189.64
2019-02-07T21:22:37.048Z,98189.92
2019-02-07T21:25:07.086Z,98205.45
2019-02-07T21:27:36.797Z,98200.11
2019-02-07T21:30:06.495Z,98193.41
2019-02-07T21:32:35.248Z,98193.94
2019-02-07T21:35:06.294Z,98194.21
2019-02-07T21:37:34.980Z,98205.73
2019-02-07T21:40:04.103Z,98203.58
2019-02-07T21:42:32.888Z,98209.47
2019-02-07T21:45:01.703Z,98206.52
2019-02-07T21:47:30.920Z,98206.80
2019-02-07T21:49:59.751Z,98211.88
2019-02-07T21:52:28.840Z,98215.38
2019-02-07T21:54:57.547Z,98204.39
2019-02-07T21:57:26.515Z,98213.22
2019-02-07T22:00:00.715Z,98210.28
2019-02-07T22:02:25.909Z,98211.08
2019-02-07T22:04:54.635Z,98218.58
2019-02-07T22:07:23.350Z,98222.60
2019-02-07T22:09:52.062Z,98221.25
2019-02-07T22:12:20.729Z,98228.20
2019-02-07T22:14:49.350Z,98220.98
2019-02-07T22:17:18.069Z,98210.25
2019-02-07T22:19:47.034Z,98219.63
2019-02-07T22:22:15.710Z,98221.52
2019-02-07T22:24:44.620Z,98222.31
2019-02-07T22:27:13.400Z,98232.24
2019-02-07T22:29:42.044Z,98235.99
2019-02-07T22:32:10.705Z,98232.23
2019-02-07T22:34:39.376Z,98224.75
2019-02-07T22:37:08.018Z,98226.34
2019-02-07T22:39:37.018Z,98223.67
2019-02-07T22:42:05.801Z,98233.59
2019-02-07T22:44:34.450Z,98239.20
2019-02-07T22:47:03.097Z,98238.08
2019-02-07T22:49:31.777Z,98234.05
2019-02-07T22:52:00.416Z,98241.03
2019-02-07T22:54:29.051Z,98236.76
2019-02-07T22:56:58.007Z,98242.13
2019-02-07T22:59:26.635Z,98244.27
2019-02-07T23:01:55.823Z,98253.38
2019-02-07T23:04:26.380Z,98259.01
2019-02-07T23:06:55.082Z,98261.17
2019-02-07T23:09:25.015Z,98269.46
2019-02-07T23:11:54.049Z,98273.48
2019-02-07T23:14:23.053Z,98279.67
2019-02-07T23:16:52.150Z,98282.08
2019-02-07T23:19:20.906Z,98283.92
2019-02-07T23:21:49.586Z,98280.98
2019-02-07T23:24:18.307Z,98280.20
2019-02-07T23:26:47.485Z,98279.11
2019-02-07T23:29:16.521Z,98275.65
2019-02-07T23:31:45.170Z,98278.59
2019-02-07T23:34:13.908Z,98282.88
2019-02-07T23:36:42.701Z,98286.07
2019-02-07T23:39:11.426Z,98289.31
2019-02-07T23:41:40.654Z,98292.77
2019-02-07T23:44:09.691Z,98293.06
2019-02-07T23:46:38.362Z,98285.83
2019-02-07T23:49:07.422Z,98288.50
2019-02-07T23:51:36.067Z,98290.11
2019-02-07T23:54:04.896Z,98298.68
2019-02-07T23:56:33.559Z,98298.95
2019-02-07T23:59:02.193Z,98304.84
